createdAt,value
2022-09-26T00:00:43.172Z,14.73
2022-09-26T00:03:11.726Z,14.55
2022-09-26T00:05:39.480Z,14.63
2022-09-26T00:08:07.868Z,14.10
2022-09-26T00:10:35.135Z,13.52
2022-09-26T00:13:02.080Z,12.98
2022-09-26T00:15:29.012Z,14.85
2022-09-26T00:17:55.983Z,14.32
2022-09-26T00:20:22.902Z,14.85
2022-09-26T00:22:49.880Z,14.13
2022-09-26T00:25:16.965Z,14.45
2022-09-26T00:27:43.927Z,13.73
2022-09-26T00:30:12.043Z,13.30
2022-09-26T00:32:39.007Z,13.13
2022-09-26T00:35:06.523Z,14.18
2022-09-26T00:37:33.446Z,15.23
2022-09-26T00:40:00.439Z,13.25
2022-09-26T00:42:27.683Z,13.77
2022-09-26T00:44:54.820Z,14.63
2022-09-26T00:47:29.460Z,14.25
2022-09-26T00:50:02.248Z,13.68
2022-09-26T00:52:36.490Z,14.70
2022-09-26T00:55:06.714Z,14.52
2022-09-26T00:57:41.828Z,13.93
2022-09-26T01:00:11.008Z,14.60
2022-09-26T01:02:39.334Z,13.98
2022-09-26T01:05:08.286Z,13.38
2022-09-26T01:07:35.606Z,14.75
2022-09-26T01:10:05.350Z,13.20
2022-09-26T01:12:32.598Z,13.05
2022-09-26T01:14:59.992Z,12.48
2022-09-26T01:17:27.621Z,11.75
2022-09-26T01:20:04.254Z,12.15
2022-09-26T01:23:03.148Z,13.60
2022-09-26T01:25:51.588Z,15.10
2022-09-26T01:28:46.414Z,13.13
2022-09-26T01:31:19.339Z,13.55
2022-09-26T01:34:00.308Z,13.13
2022-09-26T01:36:30.275Z,11.95
2022-09-26T01:39:15.593Z,13.18
2022-09-26T01:42:13.402Z,13.80
2022-09-26T01:45:11.378Z,14.10
2022-09-26T01:48:05.001Z,13.43
2022-09-26T01:50:45.557Z,12.48
2022-09-26T01:53:19.750Z,12.35
2022-09-26T01:55:53.444Z,12.88
2022-09-26T01:59:05.081Z,13.82
2022-09-26T02:01:37.445Z,13.18
2022-09-26T02:04:15.046Z,14.65
2022-09-26T02:06:55.739Z,14.70
2022-09-26T02:09:33.357Z,15.02
2022-09-26T02:12:05.032Z,16.35
2022-09-26T02:14:36.486Z,15.20
2022-09-26T02:17:10.448Z,17.65
2022-09-26T02:19:41.424Z,17.75
2022-09-26T02:22:08.504Z,18.95
2022-09-26T02:24:35.509Z,17.08
2022-09-26T02:27:02.757Z,18.27
2022-09-26T02:29:29.959Z,18.65
2022-09-26T02:32:03.205Z,18.02
2022-09-26T02:34:30.760Z,18.75
2022-09-26T02:36:59.422Z,15.82
2022-09-26T02:39:29.877Z,12.88
2022-09-26T02:42:11.004Z,12.00
2022-09-26T02:44:46.803Z,11.35
2022-09-26T02:47:38.820Z,10.98
2022-09-26T02:50:51.295Z,12.70
2022-09-26T02:53:59.011Z,12.13
2022-09-26T02:56:49.985Z,11.65
2022-09-26T02:59:29.663Z,13.10
2022-09-26T03:02:00.797Z,13.32
2022-09-26T03:04:41.732Z,13.23
2022-09-26T03:07:14.780Z,12.07
2022-09-26T03:09:43.011Z,11.50
2022-09-26T03:12:11.386Z,11.45
2022-09-26T03:14:40.459Z,11.85
2022-09-26T03:17:08.616Z,11.18
2022-09-26T03:19:53.144Z,9.63
2022-09-26T03:22:21.128Z,10.82
2022-09-26T03:24:49.255Z,10.07
2022-09-26T03:27:17.671Z,10.30
2022-09-26T03:29:46.920Z,11.15
2022-09-26T03:32:20.069Z,9.88
2022-09-26T03:34:50.580Z,10.70
2022-09-26T03:37:18.375Z,11.48
2022-09-26T03:39:45.420Z,11.05
2022-09-26T03:42:24.506Z,11.40
2022-09-26T03:44:53.739Z,11.68
2022-09-26T03:47:56.390Z,11.57
2022-09-26T03:50:24.711Z,10.93
2022-09-26T03:52:54.777Z,10.32
2022-09-26T03:55:21.747Z,10.90
2022-09-26T03:57:48.669Z,11.73
2022-09-26T04:00:27.246Z,10.13
2022-09-26T04:02:54.216Z,11.05
2022-09-26T04:05:36.108Z,10.38
2022-09-26T04:08:04.059Z,10.80
2022-09-26T04:10:31.501Z,11.52
2022-09-26T04:12:58.448Z,12.60
2022-09-26T04:15:25.729Z,12.10
2022-09-26T04:18:04.258Z,11.68
2022-09-26T04:20:31.858Z,11.98
2022-09-26T04:23:00.348Z,13.02
2022-09-26T04:25:27.364Z,13.07
2022-09-26T04:27:54.402Z,12.63
2022-09-26T04:30:22.287Z,12.02
2022-09-26T04:32:58.580Z,13.20
2022-09-26T04:35:25.592Z,11.95
2022-09-26T04:37:52.747Z,12.93
2022-09-26T04:40:19.793Z,11.85
2022-09-26T04:43:08.157Z,11.02
2022-09-26T04:45:35.123Z,11.48
2022-09-26T04:48:02.835Z,10.35
2022-09-26T04:50:48.206Z,11.02
2022-09-26T04:53:16.191Z,11.32
2022-09-26T04:55:54.866Z,10.45
2022-09-26T04:58:22.076Z,10.73
2022-09-26T05:00:49.730Z,11.27
2022-09-26T05:03:28.461Z,11.02
2022-09-26T05:05:56.724Z,9.88
2022-09-26T05:08:23.660Z,8.55
2022-09-26T05:10:55.673Z,7.88
2022-09-26T05:13:23.567Z,7.35
2022-09-26T05:15:53.355Z,7.43
2022-09-26T05:18:22.116Z,7.85
2022-09-26T05:20:50.871Z,7.13
2022-09-26T05:23:43.681Z,8.95
2022-09-26T05:26:20.866Z,6.63
2022-09-26T05:29:13.587Z,5.22
2022-09-26T05:31:54.697Z,5.63
2022-09-26T05:34:25.073Z,4.65
2022-09-26T05:36:54.019Z,5.22
2022-09-26T05:39:42.421Z,5.30
2022-09-26T05:42:11.256Z,4.43
2022-09-26T05:44:40.036Z,4.13
2022-09-26T05:47:08.614Z,4.55
2022-09-26T05:49:36.892Z,4.07
2022-09-26T05:52:04.333Z,3.92
2022-09-26T05:54:31.734Z,3.65
2022-09-26T05:56:59.870Z,4.03
2022-09-26T05:59:49.564Z,3.95
2022-09-26T06:02:21.087Z,4.45
2022-09-26T06:05:07.777Z,4.55
2022-09-26T06:07:37.575Z,3.70
2022-09-26T06:10:09.081Z,4.18
2022-09-26T06:12:54.122Z,2.88
2022-09-26T06:15:21.201Z,3.35
2022-09-26T06:17:48.492Z,2.78
2022-09-26T06:20:15.940Z,2.95
2022-09-26T06:22:43.656Z,2.50
2022-09-26T06:25:11.897Z,2.67
2022-09-26T06:27:38.963Z,2.45
2022-09-26T06:30:10.837Z,2.78
2022-09-26T06:32:39.254Z,2.10
2022-09-26T06:35:22.566Z,2.28
2022-09-26T06:38:06.766Z,3.05
2022-09-26T06:40:33.947Z,4.40
2022-09-26T06:43:01.241Z,2.83
2022-09-26T06:46:00.294Z,2.88
2022-09-26T06:48:36.515Z,2.65
2022-09-26T06:51:16.260Z,4.20
2022-09-26T06:53:45.820Z,2.90
2022-09-26T06:56:17.622Z,3.88
2022-09-26T06:58:45.456Z,4.18
2022-09-26T07:01:15.279Z,3.75
2022-09-26T07:03:59.866Z,3.50
2022-09-26T07:06:32.563Z,5.60
2022-09-26T07:09:03.850Z,5.90
2022-09-26T07:12:13.605Z,5.95
2022-09-26T07:14:38.925Z,5.53
2022-09-26T07:17:37.860Z,6.72
2022-09-26T07:20:15.351Z,9.88
2022-09-26T07:23:03.906Z,9.57
2022-09-26T07:25:31.941Z,7.85
2022-09-26T07:28:01.575Z,8.95
2022-09-26T07:30:37.188Z,8.82
2022-09-26T07:33:12.018Z,8.95
2022-09-26T07:35:52.020Z,9.85
2022-09-26T07:38:21.066Z,9.68
2022-09-26T07:40:54.461Z,9.02
2022-09-26T07:43:35.629Z,8.85
2022-09-26T07:46:28.337Z,9.90
2022-09-26T07:49:15.047Z,8.73
2022-09-26T07:52:00.636Z,9.75
2022-09-26T07:54:42.462Z,11.55
2022-09-26T07:57:21.411Z,11.90
2022-09-26T07:59:54.330Z,12.77
2022-09-26T08:02:46.915Z,10.75
2022-09-26T08:05:20.159Z,10.52
2022-09-26T08:07:49.352Z,9.00
2022-09-26T08:10:35.428Z,10.32
2022-09-26T08:13:14.592Z,9.20
2022-09-26T08:15:53.455Z,10.65
2022-09-26T08:18:27.865Z,9.30
2022-09-26T08:20:54.977Z,8.82
2022-09-26T08:23:22.065Z,9.07
2022-09-26T08:26:09.004Z,9.93
2022-09-26T08:28:49.574Z,9.57
2022-09-26T08:31:18.179Z,9.77
2022-09-26T08:33:47.749Z,10.30
2022-09-26T08:36:17.935Z,10.18
2022-09-26T08:39:11.107Z,10.25
2022-09-26T08:42:35.112Z,11.55
2022-09-26T08:45:42.117Z,14.32
2022-09-26T08:48:53.984Z,14.52
2022-09-26T08:51:45.284Z,14.50
2022-09-26T08:54:40.833Z,15.55
2022-09-26T08:57:27.072Z,15.00
2022-09-26T08:59:54.617Z,16.35
2022-09-26T09:02:32.589Z,16.80
2022-09-26T09:05:15.495Z,15.85
2022-09-26T09:07:49.553Z,16.38
2022-09-26T09:10:20.977Z,16.60
2022-09-26T09:13:23.018Z,16.23
2022-09-26T09:16:43.251Z,17.25
2022-09-26T09:19:52.380Z,17.00
2022-09-26T09:23:11.459Z,19.80
2022-09-26T09:29:35.051Z,18.48
2022-09-26T09:32:48.022Z,19.60
2022-09-26T09:35:47.085Z,18.92
2022-09-26T09:38:31.370Z,19.73
2022-09-26T09:41:21.484Z,18.60
2022-09-26T09:43:56.039Z,17.30
2022-09-26T09:46:36.133Z,14.93
2022-09-26T09:49:23.302Z,15.40
2022-09-26T09:51:56.404Z,11.60
2022-09-26T09:57:18.654Z,13.02
2022-09-26T10:00:13.392Z,12.90
2022-09-26T10:03:36.272Z,14.80
2022-09-26T10:06:05.714Z,13.07
2022-09-26T10:08:41.735Z,11.20
2022-09-26T10:11:41.630Z,14.15
2022-09-26T10:14:39.572Z,11.68
2022-09-26T10:17:09.215Z,13.10
2022-09-26T10:19:54.587Z,12.50
2022-09-26T10:22:44.074Z,14.15
2022-09-26T10:25:24.068Z,14.32
2022-09-26T10:27:57.423Z,13.05
2022-09-26T10:30:32.317Z,13.30
2022-09-26T10:33:29.008Z,12.00
2022-09-26T10:36:20.658Z,13.23
2022-09-26T10:39:15.699Z,13.05
2022-09-26T10:41:46.203Z,14.25
2022-09-26T10:44:34.983Z,15.52
2022-09-26T10:47:10.061Z,14.25
2022-09-26T10:50:12.181Z,14.75
2022-09-26T10:53:08.479Z,14.43
2022-09-26T10:55:41.813Z,13.98
2022-09-26T10:58:19.601Z,13.25
2022-09-26T11:00:50.749Z,12.55
2022-09-26T11:03:24.482Z,12.13
2022-09-26T11:06:34.977Z,12.57
2022-09-26T11:09:20.792Z,14.45
2022-09-26T11:12:25.417Z,12.88
2022-09-26T11:15:05.568Z,13.52
2022-09-26T11:17:44.839Z,14.27
2022-09-26T11:20:39.425Z,14.70
2022-09-26T11:23:39.081Z,14.23
2022-09-26T11:26:09.097Z,15.40
2022-09-26T11:29:02.267Z,15.70
2022-09-26T11:31:42.983Z,14.50
2022-09-26T11:34:32.660Z,13.45
2022-09-26T11:37:07.132Z,14.20
2022-09-26T11:39:36.810Z,15.38
2022-09-26T11:42:15.969Z,14.80
2022-09-26T11:45:22.412Z,14.88
2022-09-26T11:48:32.977Z,15.95
2022-09-26T11:52:02.404Z,15.18
2022-09-26T11:55:08.185Z,14.68
2022-09-26T11:57:42.431Z,13.35
2022-09-26T12:00:26.601Z,12.52
2022-09-26T12:03:06.593Z,12.57
2022-09-26T12:05:56.382Z,9.02
2022-09-26T12:08:41.194Z,9.95
2022-09-26T12:11:17.282Z,9.07
2022-09-26T12:13:52.387Z,9.35
2022-09-26T12:16:52.297Z,11.68
2022-09-26T12:19:32.356Z,9.13
2022-09-26T12:22:26.653Z,9.65
2022-09-26T12:25:14.545Z,8.68
2022-09-26T12:28:09.327Z,8.57
2022-09-26T12:30:39.326Z,8.00
2022-09-26T12:33:20.978Z,6.60
2022-09-26T12:36:31.251Z,6.45
2022-09-26T12:39:32.364Z,8.15
2022-09-26T12:42:38.222Z,7.38
2022-09-26T12:45:18.113Z,7.35
2022-09-26T12:48:03.887Z,8.63
2022-09-26T12:50:46.506Z,8.43
2022-09-26T12:53:23.952Z,7.43
2022-09-26T12:56:11.010Z,8.10
2022-09-26T12:59:09.060Z,7.97
2022-09-26T13:02:15.493Z,7.47
2022-09-26T13:04:45.560Z,6.63
2022-09-26T13:07:19.777Z,7.80
2022-09-26T13:09:53.213Z,8.32
2022-09-26T13:12:31.627Z,8.13
2022-09-26T13:15:23.492Z,8.57
2022-09-26T13:17:58.303Z,8.57
2022-09-26T13:20:44.976Z,7.88
2022-09-26T13:23:20.758Z,7.28
2022-09-26T13:25:50.277Z,7.65
2022-09-26T13:28:26.762Z,7.13
2022-09-26T13:30:59.297Z,7.18
2022-09-26T13:33:31.335Z,7.53
2022-09-26T13:36:00.902Z,8.35
2022-09-26T13:38:39.184Z,8.43
2022-09-26T13:41:06.184Z,7.70
2022-09-26T13:43:53.560Z,7.05
2022-09-26T13:46:46.650Z,7.00
2022-09-26T13:49:25.199Z,6.57
2022-09-26T13:52:16.739Z,8.52
2022-09-26T13:55:02.150Z,7.78
2022-09-26T13:57:35.939Z,7.43
2022-09-26T14:00:31.852Z,6.82
2022-09-26T14:03:10.632Z,5.28
2022-09-26T14:05:46.841Z,5.72
2022-09-26T14:08:49.133Z,6.07
2022-09-26T14:11:27.779Z,6.70
2022-09-26T14:14:18.168Z,5.40
2022-09-26T14:16:53.708Z,5.95
2022-09-26T14:19:45.806Z,6.38
2022-09-26T14:22:19.065Z,5.57
2022-09-26T14:24:47.262Z,6.03
2022-09-26T14:27:37.172Z,7.68
2022-09-26T14:30:13.329Z,7.95
2022-09-26T14:32:45.068Z,7.72
2022-09-26T14:35:25.191Z,8.32
2022-09-26T14:37:57.811Z,7.57
2022-09-26T14:40:36.471Z,8.05
2022-09-26T14:43:18.419Z,6.80
2022-09-26T14:46:15.329Z,6.00
2022-09-26T14:48:43.911Z,6.63
2022-09-26T14:51:11.228Z,7.28
2022-09-26T14:53:42.552Z,7.53
2022-09-26T14:56:17.977Z,7.32
2022-09-26T14:58:47.041Z,7.20
2022-09-26T15:01:20.180Z,8.00
2022-09-26T15:04:14.497Z,5.63
2022-09-26T15:06:50.973Z,5.72
2022-09-26T15:09:38.198Z,5.60
2022-09-26T15:12:13.647Z,5.68
2022-09-26T15:14:49.826Z,4.90
2022-09-26T15:17:22.259Z,5.35
2022-09-26T15:19:53.707Z,6.03
2022-09-26T15:22:24.325Z,6.57
2022-09-26T15:25:06.817Z,5.72
2022-09-26T15:27:34.070Z,6.47
2022-09-26T15:30:15.733Z,6.00
2022-09-26T15:32:42.912Z,6.15
2022-09-26T15:35:13.697Z,5.30
2022-09-26T15:37:42.250Z,5.97
2022-09-26T15:40:25.774Z,5.90
2022-09-26T15:43:11.678Z,5.15
2022-09-26T15:45:47.997Z,5.43
2022-09-26T15:48:29.021Z,5.18
2022-09-26T15:51:16.244Z,4.45
2022-09-26T15:54:04.191Z,4.95
2022-09-26T15:56:47.584Z,5.35
2022-09-26T15:59:20.032Z,3.78
2022-09-26T16:01:48.945Z,5.07
2022-09-26T16:04:30.845Z,4.88
2022-09-26T16:07:21.503Z,4.28
2022-09-26T16:09:51.360Z,4.07
2022-09-26T16:12:22.345Z,3.90
2022-09-26T16:14:58.574Z,4.75
2022-09-26T16:17:36.190Z,4.22
2022-09-26T16:20:05.580Z,4.45
2022-09-26T16:22:45.671Z,4.53
2022-09-26T16:25:18.791Z,4.35
2022-09-26T16:27:47.585Z,5.97
2022-09-26T16:30:23.815Z,4.10
2022-09-26T16:32:52.836Z,5.30
2022-09-26T16:35:27.331Z,5.10
2022-09-26T16:38:22.639Z,4.68
2022-09-26T16:40:58.162Z,4.43
2022-09-26T16:43:31.721Z,6.40
2022-09-26T16:46:05.788Z,4.80
2022-09-26T16:48:37.591Z,4.90
2022-09-26T16:51:30.796Z,4.78
2022-09-26T16:54:20.809Z,7.40
2022-09-26T16:56:53.767Z,8.38
2022-09-26T16:59:28.750Z,10.70
2022-09-26T17:01:59.000Z,8.85
2022-09-26T17:04:34.368Z,5.13
2022-09-26T17:07:12.721Z,6.18
2022-09-26T17:09:42.362Z,6.45
2022-09-26T17:12:17.371Z,6.60
2022-09-26T17:14:47.139Z,5.90
2022-09-26T17:17:17.829Z,5.88
2022-09-26T17:19:47.560Z,10.93
2022-09-26T17:22:20.286Z,6.28
2022-09-26T17:24:52.110Z,6.35
2022-09-26T17:27:27.341Z,5.57
2022-09-26T17:29:59.664Z,5.32
2022-09-26T17:32:36.791Z,6.97
2022-09-26T17:35:17.094Z,5.95
2022-09-26T17:37:44.167Z,5.93
2022-09-26T17:40:19.230Z,5.60
2022-09-26T17:42:46.483Z,6.03
2022-09-26T17:45:13.805Z,5.70
2022-09-26T17:47:40.891Z,6.13
2022-09-26T17:50:11.070Z,5.82
2022-09-26T17:52:38.487Z,6.30
2022-09-26T17:55:07.492Z,6.30
2022-09-26T17:57:38.363Z,5.70
2022-09-26T18:00:11.133Z,6.78
2022-09-26T18:02:43.967Z,6.05
2022-09-26T18:05:21.655Z,6.43
2022-09-26T18:07:52.575Z,7.18
2022-09-26T18:10:22.950Z,6.55
2022-09-26T18:12:58.258Z,6.85
2022-09-26T18:15:26.816Z,6.78
2022-09-26T18:17:53.938Z,7.55
2022-09-26T18:20:23.647Z,7.25
2022-09-26T18:22:52.442Z,6.88
2022-09-26T18:25:22.963Z,6.82
2022-09-26T18:27:53.388Z,7.63
2022-09-26T18:30:24.173Z,7.88
2022-09-26T18:32:54.032Z,7.38
2022-09-26T18:35:27.073Z,8.25
2022-09-26T18:37:55.861Z,8.80
2022-09-26T18:40:28.602Z,7.63
2022-09-26T18:42:58.250Z,8.03
2022-09-26T18:45:29.688Z,7.68
2022-09-26T18:47:57.057Z,8.40
2022-09-26T18:50:34.322Z,8.70
2022-09-26T18:53:01.334Z,8.02
2022-09-26T18:55:46.844Z,7.68
2022-09-26T18:58:25.296Z,7.60
2022-09-26T19:00:56.709Z,8.95
2022-09-26T19:03:26.783Z,8.07
2022-09-26T19:06:02.378Z,8.70
2022-09-26T19:08:39.934Z,9.18
2022-09-26T19:11:20.082Z,8.57
2022-09-26T19:13:52.036Z,8.40
2022-09-26T19:16:19.822Z,8.27
2022-09-26T19:18:47.494Z,8.55
2022-09-26T19:21:23.670Z,8.00
2022-09-26T19:23:51.405Z,7.57
2022-09-26T19:26:45.967Z,8.05
2022-09-26T19:29:16.389Z,8.32
2022-09-26T19:31:43.682Z,8.98
2022-09-26T19:34:15.028Z,8.57
2022-09-26T19:36:42.290Z,9.23
2022-09-26T19:39:14.335Z,7.70
2022-09-26T19:41:41.469Z,8.55
2022-09-26T19:44:08.694Z,9.25
2022-09-26T19:46:37.216Z,8.20
2022-09-26T19:49:05.931Z,8.38
2022-09-26T19:51:37.469Z,8.85
2022-09-26T19:54:06.353Z,9.18
2022-09-26T19:56:35.131Z,9.00
2022-09-26T19:59:02.060Z,9.75
2022-09-26T20:01:30.134Z,9.18
2022-09-26T20:03:57.356Z,8.77
2022-09-26T20:06:25.776Z,8.13
2022-09-26T20:09:00.510Z,8.95
2022-09-26T20:11:28.483Z,8.63
2022-09-26T20:14:14.324Z,9.85
2022-09-26T20:16:42.759Z,12.88
2022-09-26T20:19:18.637Z,11.90
2022-09-26T20:21:45.628Z,12.23
2022-09-26T20:24:18.560Z,13.32
2022-09-26T20:26:47.829Z,12.13
2022-09-26T20:29:15.992Z,13.35
2022-09-26T20:31:43.671Z,12.65
2022-09-26T20:34:17.057Z,12.93
2022-09-26T20:36:51.613Z,13.55
2022-09-26T20:39:25.778Z,14.90
2022-09-26T20:41:53.171Z,14.98
2022-09-26T20:44:33.599Z,16.95
2022-09-26T20:47:04.571Z,16.77
2022-09-26T20:49:46.029Z,17.67
2022-09-26T20:52:20.881Z,19.08
2022-09-26T20:54:48.473Z,17.30
2022-09-26T20:57:19.811Z,16.50
2022-09-26T20:59:47.083Z,20.58
2022-09-26T21:02:23.201Z,7.20
2022-09-26T21:04:51.988Z,4.47
2022-09-26T21:07:19.327Z,4.53
2022-09-26T21:09:46.606Z,5.85
2022-09-26T21:12:15.752Z,7.72
2022-09-26T21:14:43.073Z,9.55
2022-09-26T21:17:29.272Z,10.90
2022-09-26T21:19:56.505Z,12.13
2022-09-26T21:22:44.287Z,12.68
2022-09-26T21:25:19.979Z,10.80
2022-09-26T21:27:52.445Z,12.50
2022-09-26T21:30:20.682Z,14.45
2022-09-26T21:32:56.964Z,15.85
2022-09-26T21:35:29.654Z,15.05
2022-09-26T21:37:58.818Z,17.65
2022-09-26T21:40:30.018Z,13.70
2022-09-26T21:43:05.861Z,13.80
2022-09-26T21:45:33.846Z,8.45
2022-09-26T21:48:01.000Z,8.30
2022-09-26T21:50:29.256Z,12.05
2022-09-26T21:53:21.189Z,9.93
2022-09-26T21:55:53.795Z,8.65
2022-09-26T21:58:26.030Z,9.80
2022-09-26T22:00:53.103Z,8.50
2022-09-26T22:03:20.088Z,9.60
2022-09-26T22:05:47.031Z,9.55
2022-09-26T22:08:14.040Z,8.98
2022-09-26T22:10:41.182Z,10.15
2022-09-26T22:13:08.094Z,9.70
2022-09-26T22:15:35.137Z,9.70
2022-09-26T22:18:02.210Z,8.98
2022-09-26T22:20:29.132Z,8.85
2022-09-26T22:22:56.051Z,8.48
2022-09-26T22:25:22.984Z,8.30
2022-09-26T22:27:49.890Z,8.43
2022-09-26T22:30:17.015Z,9.40
2022-09-26T22:32:44.201Z,11.90
2022-09-26T22:35:11.292Z,11.00
2022-09-26T22:37:39.206Z,11.52
2022-09-26T22:40:06.796Z,11.02
2022-09-26T22:42:33.851Z,11.32
2022-09-26T22:45:00.825Z,11.75
2022-09-26T22:47:28.114Z,12.90
2022-09-26T22:49:55.062Z,16.00
2022-09-26T22:52:21.989Z,13.05
2022-09-26T22:54:48.920Z,13.38
2022-09-26T22:57:16.671Z,12.00
2022-09-26T22:59:43.635Z,14.30
2022-09-26T23:02:10.555Z,12.23
2022-09-26T23:04:49.654Z,11.48
2022-09-26T23:07:19.276Z,12.52
2022-09-26T23:09:46.404Z,10.18
2022-09-26T23:12:13.468Z,10.75
2022-09-26T23:14:40.415Z,12.10
2022-09-26T23:17:07.625Z,10.90
2022-09-26T23:19:34.675Z,11.30
2022-09-26T23:22:01.782Z,12.05
2022-09-26T23:24:28.789Z,13.55
2022-09-26T23:26:58.527Z,12.35
2022-09-26T23:29:26.455Z,11.10
2022-09-26T23:31:53.774Z,12.38
2022-09-26T23:34:21.133Z,12.85
2022-09-26T23:36:48.154Z,12.20
2022-09-26T23:39:15.232Z,13.00
2022-09-26T23:41:42.360Z,13.57
2022-09-26T23:44:09.800Z,12.05
2022-09-26T23:46:36.901Z,13.13
2022-09-26T23:49:03.979Z,11.15
2022-09-26T23:51:31.073Z,11.50
2022-09-26T23:53:58.025Z,11.82
2022-09-26T23:56:24.977Z,10.10
2022-09-26T23:58:52.009Z,12.23
